createdAt,value
2023-02-27T00:02:03.566Z,1.40
2023-02-27T00:04:30.610Z,0.95
2023-02-27T00:06:57.694Z,0.77
2023-02-27T00:09:24.674Z,0.90
2023-02-27T00:11:51.673Z,0.70
2023-02-27T00:14:18.730Z,1.00
2023-02-27T00:16:45.715Z,0.90
2023-02-27T00:19:13.643Z,0.82
2023-02-27T00:21:40.820Z,0.90
2023-02-27T00:24:08.306Z,0.80
2023-02-27T00:26:35.225Z,1.75
2023-02-27T00:29:02.260Z,0.73
2023-02-27T00:31:29.695Z,0.70
2023-02-27T00:33:56.835Z,0.65
2023-02-27T00:36:23.803Z,0.82
2023-02-27T00:38:50.875Z,0.75
2023-02-27T00:41:17.850Z,0.80
2023-02-27T00:43:44.789Z,0.85
2023-02-27T00:46:11.775Z,0.82
2023-02-27T00:48:38.781Z,0.90
2023-02-27T00:51:05.929Z,0.80
2023-02-27T00:53:32.936Z,0.70
2023-02-27T00:55:59.879Z,0.80
2023-02-27T00:58:26.929Z,0.68
2023-02-27T01:00:53.887Z,0.70
2023-02-27T01:03:20.924Z,0.82
2023-02-27T01:05:47.968Z,1.90
2023-02-27T01:08:14.925Z,2.50
2023-02-27T01:10:41.909Z,4.63
2023-02-27T01:13:11.167Z,2.22
2023-02-27T01:15:38.386Z,2.95
2023-02-27T01:18:05.362Z,0.90
2023-02-27T01:20:32.274Z,1.20
2023-02-27T01:22:59.241Z,1.73
2023-02-27T01:25:26.186Z,7.57
2023-02-27T01:27:53.140Z,1.38
2023-02-27T01:30:20.136Z,2.80
2023-02-27T01:32:47.175Z,2.95
2023-02-27T01:35:14.649Z,2.17
2023-02-27T01:37:41.730Z,1.80
2023-02-27T01:40:09.548Z,1.60
2023-02-27T01:42:36.727Z,1.10
2023-02-27T01:45:23.515Z,1.38
2023-02-27T01:47:53.489Z,1.05
2023-02-27T01:50:20.837Z,0.90
2023-02-27T01:52:56.342Z,1.02
2023-02-27T01:55:25.475Z,0.90
2023-02-27T01:57:53.201Z,1.08
2023-02-27T02:00:20.706Z,0.80
2023-02-27T02:03:20.271Z,1.30
2023-02-27T02:05:47.890Z,1.00
2023-02-27T02:08:20.233Z,0.82
2023-02-27T02:10:50.310Z,0.82
2023-02-27T02:13:18.563Z,0.95
2023-02-27T02:16:06.836Z,1.00
2023-02-27T02:18:54.696Z,1.10
2023-02-27T02:22:06.149Z,0.80
2023-02-27T02:24:39.086Z,0.90
2023-02-27T02:27:19.165Z,1.15
2023-02-27T02:30:24.469Z,1.08
2023-02-27T02:33:09.661Z,1.25
2023-02-27T02:35:59.550Z,1.00
2023-02-27T02:38:50.528Z,1.25
2023-02-27T02:41:39.317Z,1.10
2023-02-27T02:44:19.147Z,1.00
2023-02-27T02:46:56.886Z,1.10
2023-02-27T02:49:39.867Z,1.08
2023-02-27T02:52:23.968Z,1.67
2023-02-27T02:55:09.169Z,2.38
2023-02-27T02:57:49.602Z,4.68
2023-02-27T03:00:20.701Z,2.58
2023-02-27T03:03:17.678Z,2.30
2023-02-27T03:05:55.894Z,1.65
2023-02-27T03:08:28.693Z,1.10
2023-02-27T03:11:03.936Z,1.20
2023-02-27T03:13:39.180Z,1.15
2023-02-27T03:16:27.363Z,1.40
2023-02-27T03:19:03.721Z,2.55
2023-02-27T03:21:38.381Z,0.93
2023-02-27T03:24:09.341Z,1.13
2023-02-27T03:26:41.449Z,1.05
2023-02-27T03:29:16.152Z,1.10
2023-02-27T03:31:49.799Z,1.48
2023-02-27T03:34:26.608Z,1.38
2023-02-27T03:36:56.469Z,1.45
2023-02-27T03:39:30.087Z,9.20
2023-02-27T03:42:25.021Z,2.35
2023-02-27T03:45:16.400Z,1.52
2023-02-27T03:47:43.477Z,1.50
2023-02-27T03:50:11.531Z,1.60
2023-02-27T03:52:38.943Z,1.50
2023-02-27T03:55:17.708Z,1.10
2023-02-27T03:57:46.892Z,1.20
2023-02-27T04:00:17.682Z,1.15
2023-02-27T04:02:46.647Z,1.23
2023-02-27T04:05:13.676Z,1.30
2023-02-27T04:07:46.490Z,1.20
2023-02-27T04:10:32.148Z,2.05
2023-02-27T04:13:14.386Z,3.63
2023-02-27T04:16:15.859Z,14.35
2023-02-27T04:18:48.481Z,7.15
2023-02-27T04:21:15.579Z,1.92
2023-02-27T04:23:48.899Z,1.55
2023-02-27T04:26:32.103Z,1.40
2023-02-27T04:29:16.286Z,1.75
2023-02-27T04:32:02.618Z,2.20
2023-02-27T04:34:42.699Z,1.55
2023-02-27T04:37:19.138Z,1.30
2023-02-27T04:39:58.500Z,1.50
2023-02-27T04:42:31.311Z,1.45
2023-02-27T04:45:01.702Z,1.70
2023-02-27T04:47:34.961Z,1.90
2023-02-27T04:50:09.637Z,1.60
2023-02-27T04:52:45.472Z,2.83
2023-02-27T04:55:17.700Z,2.47
2023-02-27T04:57:52.824Z,2.05
2023-02-27T05:00:23.430Z,2.03
2023-02-27T05:02:59.835Z,2.60
2023-02-27T05:05:30.201Z,2.00
2023-02-27T05:08:07.224Z,1.90
2023-02-27T05:10:58.866Z,3.10
2023-02-27T05:13:38.150Z,2.47
2023-02-27T05:16:19.972Z,2.47
2023-02-27T05:18:47.803Z,1.77
2023-02-27T05:21:27.775Z,1.60
2023-02-27T05:24:09.601Z,1.50
2023-02-27T05:26:55.798Z,1.45
2023-02-27T05:29:52.912Z,1.20
2023-02-27T05:32:42.225Z,1.73
2023-02-27T05:35:38.371Z,1.38
2023-02-27T05:38:28.876Z,1.40
2023-02-27T05:41:13.395Z,1.45
2023-02-27T05:43:57.247Z,1.27
2023-02-27T05:46:29.496Z,1.20
2023-02-27T05:49:23.968Z,2.22
2023-02-27T05:51:53.597Z,1.52
2023-02-27T05:54:31.392Z,2.03
2023-02-27T05:56:59.857Z,1.40
2023-02-27T05:59:35.566Z,2.00
2023-02-27T06:02:02.643Z,1.95
2023-02-27T06:04:29.690Z,1.98
2023-02-27T06:06:57.946Z,1.70
2023-02-27T06:09:25.113Z,2.35
2023-02-27T06:11:52.012Z,1.40
2023-02-27T06:14:18.913Z,2.00
2023-02-27T06:16:46.011Z,1.52
2023-02-27T06:19:13.172Z,1.80
2023-02-27T06:21:40.203Z,1.40
2023-02-27T06:24:07.136Z,1.70
2023-02-27T06:26:34.092Z,1.40
2023-02-27T06:29:01.141Z,1.40
2023-02-27T06:31:28.112Z,1.10
2023-02-27T06:33:55.877Z,1.55
2023-02-27T06:36:23.201Z,1.95
2023-02-27T06:38:50.348Z,1.67
2023-02-27T06:41:17.363Z,1.30
2023-02-27T06:43:44.562Z,1.20
2023-02-27T06:46:11.606Z,1.30
2023-02-27T06:48:38.646Z,1.88
2023-02-27T06:51:06.310Z,1.20
2023-02-27T06:53:33.620Z,1.77
2023-02-27T06:56:00.589Z,1.73
2023-02-27T06:58:27.613Z,1.65
2023-02-27T07:00:54.558Z,1.45
2023-02-27T07:03:21.549Z,1.55
2023-02-27T07:05:48.459Z,1.98
2023-02-27T07:08:17.583Z,2.10
2023-02-27T07:10:47.321Z,1.45
2023-02-27T07:13:17.253Z,1.50
2023-02-27T07:15:45.528Z,2.03
2023-02-27T07:18:12.531Z,1.92
2023-02-27T07:20:40.212Z,1.10
2023-02-27T07:23:07.286Z,1.50
2023-02-27T07:25:34.348Z,1.95
2023-02-27T07:28:01.305Z,1.20
2023-02-27T07:30:30.732Z,1.85
2023-02-27T07:32:57.741Z,1.30
2023-02-27T07:35:24.716Z,1.92
2023-02-27T07:37:51.961Z,1.02
2023-02-27T07:40:19.074Z,1.30
2023-02-27T07:42:48.567Z,1.15
2023-02-27T07:45:18.696Z,3.05
2023-02-27T07:47:46.529Z,2.08
2023-02-27T07:50:14.271Z,1.40
2023-02-27T07:52:42.927Z,1.65
2023-02-27T07:55:11.762Z,1.42
2023-02-27T07:57:38.731Z,1.70
2023-02-27T08:00:07.235Z,1.77
2023-02-27T08:02:34.326Z,4.90
2023-02-27T08:05:02.565Z,5.80
2023-02-27T08:07:29.497Z,5.25
2023-02-27T08:09:56.434Z,4.43
2023-02-27T08:12:23.640Z,3.50
2023-02-27T08:14:50.729Z,1.95
2023-02-27T08:17:17.712Z,1.35
2023-02-27T08:19:44.684Z,1.70
2023-02-27T08:22:12.489Z,1.80
2023-02-27T08:24:40.663Z,2.60
2023-02-27T08:27:08.209Z,2.20
2023-02-27T08:29:35.250Z,1.42
2023-02-27T08:32:02.833Z,1.48
2023-02-27T08:34:30.425Z,1.45
2023-02-27T08:36:57.546Z,1.58
2023-02-27T08:39:24.505Z,1.60
2023-02-27T08:41:52.809Z,1.83
2023-02-27T08:44:20.786Z,2.03
2023-02-27T08:46:47.807Z,1.35
2023-02-27T08:49:14.761Z,1.25
2023-02-27T08:51:41.714Z,1.25
2023-02-27T08:54:08.699Z,13.98
2023-02-27T08:56:35.718Z,3.85
2023-02-27T08:59:02.967Z,2.90
2023-02-27T09:01:34.493Z,8.77
2023-02-27T09:04:03.070Z,2.40
2023-02-27T09:06:31.398Z,11.45
2023-02-27T09:08:59.179Z,8.27
2023-02-27T09:11:27.138Z,26.75
2023-02-27T09:13:54.910Z,7.70
2023-02-27T09:16:23.453Z,3.40
2023-02-27T09:18:51.129Z,12.48
2023-02-27T09:21:18.424Z,3.30
2023-02-27T09:23:45.381Z,1.50
2023-02-27T09:26:12.665Z,3.92
2023-02-27T09:28:40.240Z,1.90
2023-02-27T09:31:08.147Z,3.13
2023-02-27T09:33:37.433Z,3.42
2023-02-27T09:36:06.090Z,1.90
2023-02-27T09:38:34.858Z,1.10
2023-02-27T09:41:02.945Z,0.98
2023-02-27T09:43:39.197Z,9.93
2023-02-27T09:46:07.830Z,2.35
2023-02-27T09:48:41.399Z,0.95
2023-02-27T09:51:08.543Z,2.03
2023-02-27T09:53:46.231Z,6.50
2023-02-27T09:56:18.789Z,1.00
2023-02-27T09:59:11.936Z,1.33
2023-02-27T10:02:15.986Z,3.03
2023-02-27T10:04:58.820Z,1.15
2023-02-27T10:07:44.297Z,1.00
2023-02-27T10:10:24.007Z,1.23
2023-02-27T10:12:53.959Z,1.00
2023-02-27T10:15:31.153Z,1.10
2023-02-27T10:18:26.193Z,0.90
2023-02-27T10:21:15.825Z,4.88
2023-02-27T10:24:01.476Z,2.85
2023-02-27T10:26:33.429Z,3.15
2023-02-27T10:29:14.400Z,1.00
2023-02-27T10:31:42.316Z,0.80
2023-02-27T10:34:16.387Z,4.03
2023-02-27T10:36:46.828Z,3.90
2023-02-27T10:39:17.386Z,0.88
2023-02-27T10:41:45.467Z,0.90
2023-02-27T10:44:18.847Z,1.33
2023-02-27T10:46:46.457Z,0.88
2023-02-27T10:49:20.024Z,0.90
2023-02-27T10:52:04.237Z,5.60
2023-02-27T10:54:31.777Z,2.85
2023-02-27T10:57:01.921Z,2.05
2023-02-27T10:59:33.149Z,1.75
2023-02-27T11:02:04.117Z,2.63
2023-02-27T11:04:39.206Z,1.30
2023-02-27T11:07:18.510Z,1.58
2023-02-27T11:10:01.048Z,2.00
2023-02-27T11:12:30.908Z,3.85
2023-02-27T11:15:01.058Z,2.67
2023-02-27T11:17:34.228Z,2.53
2023-02-27T11:20:06.238Z,2.75
2023-02-27T11:22:33.961Z,1.95
2023-02-27T11:25:20.245Z,1.88
2023-02-27T11:27:47.840Z,1.20
2023-02-27T11:30:23.911Z,1.40
2023-02-27T11:32:52.342Z,2.08
2023-02-27T11:35:27.376Z,0.90
2023-02-27T11:37:57.405Z,1.00
2023-02-27T11:40:30.340Z,1.40
2023-02-27T11:43:02.620Z,2.50
2023-02-27T11:46:04.777Z,0.85
2023-02-27T11:48:46.622Z,0.90
2023-02-27T11:51:56.837Z,1.00
2023-02-27T11:54:54.188Z,0.88
2023-02-27T11:57:28.832Z,1.00
2023-02-27T12:00:06.662Z,0.90
2023-02-27T12:02:33.586Z,1.17
2023-02-27T12:05:15.406Z,0.90
2023-02-27T12:07:49.062Z,0.82
2023-02-27T12:10:23.656Z,0.90
2023-02-27T12:15:33.155Z,1.20
2023-02-27T12:18:21.320Z,0.93
2023-02-27T12:21:06.587Z,1.25
2023-02-27T12:23:39.062Z,0.90
2023-02-27T12:26:37.408Z,0.80
2023-02-27T12:29:13.601Z,0.77
2023-02-27T12:31:53.173Z,1.00
2023-02-27T12:34:28.543Z,1.35
2023-02-27T12:37:02.191Z,0.98
2023-02-27T12:39:30.132Z,1.00
2023-02-27T12:42:12.417Z,1.02
2023-02-27T12:44:54.214Z,1.02
2023-02-27T12:47:30.403Z,0.80
2023-02-27T12:50:12.214Z,0.90
2023-02-27T12:53:01.037Z,0.80
2023-02-27T12:55:35.465Z,1.00
2023-02-27T12:58:18.603Z,1.30
2023-02-27T13:00:53.668Z,0.95
2023-02-27T13:03:43.739Z,0.90
2023-02-27T13:06:19.390Z,0.90
2023-02-27T13:09:19.543Z,1.90
2023-02-27T13:11:53.921Z,0.90
2023-02-27T13:14:40.560Z,0.77
2023-02-27T13:17:30.818Z,1.67
2023-02-27T13:20:22.595Z,1.10
2023-02-27T13:23:06.585Z,1.77
2023-02-27T13:25:36.993Z,3.00
2023-02-27T13:28:08.654Z,3.45
2023-02-27T13:31:06.825Z,6.10
2023-02-27T13:34:01.306Z,1.65
2023-02-27T13:36:39.282Z,3.58
2023-02-27T13:39:45.726Z,2.55
2023-02-27T13:42:28.080Z,0.90
2023-02-27T13:44:58.948Z,1.88
2023-02-27T13:47:39.872Z,1.60
2023-02-27T13:50:33.301Z,2.42
2023-02-27T13:53:10.662Z,1.77
2023-02-27T13:55:38.838Z,1.48
2023-02-27T13:58:06.356Z,1.20
2023-02-27T14:00:35.641Z,1.92
2023-02-27T14:03:09.309Z,1.20
2023-02-27T14:05:42.540Z,3.60
2023-02-27T14:08:15.082Z,1.30
2023-02-27T14:11:14.348Z,2.63
2023-02-27T14:13:50.464Z,3.88
2023-02-27T14:16:41.992Z,1.88
2023-02-27T14:19:18.217Z,1.77
2023-02-27T14:22:02.294Z,3.88
2023-02-27T14:24:33.777Z,1.15
2023-02-27T14:27:02.052Z,1.67
2023-02-27T14:29:33.452Z,2.85
2023-02-27T14:32:08.093Z,1.20
2023-02-27T14:34:38.431Z,3.20
2023-02-27T14:37:10.400Z,1.67
2023-02-27T14:39:38.682Z,2.65
2023-02-27T14:42:30.338Z,2.15
2023-02-27T14:44:57.762Z,2.30
2023-02-27T14:47:34.702Z,2.83
2023-02-27T14:50:05.792Z,3.08
2023-02-27T14:52:42.479Z,2.22
2023-02-27T14:55:31.547Z,5.25
2023-02-27T14:58:14.899Z,4.88
2023-02-27T15:00:51.025Z,3.40
2023-02-27T15:03:27.802Z,3.10
2023-02-27T15:06:00.412Z,2.08
2023-02-27T15:08:32.397Z,4.57
2023-02-27T15:11:01.253Z,3.67
2023-02-27T15:13:34.722Z,2.63
2023-02-27T15:16:21.558Z,3.00
2023-02-27T15:18:56.975Z,2.60
2023-02-27T15:21:26.487Z,3.22
2023-02-27T15:23:57.185Z,3.50
2023-02-27T15:26:25.973Z,6.00
2023-02-27T15:28:53.342Z,4.60
2023-02-27T15:31:27.245Z,2.83
2023-02-27T15:33:55.821Z,3.42
2023-02-27T15:36:34.492Z,2.10
2023-02-27T15:39:15.945Z,3.10
2023-02-27T15:41:46.421Z,3.92
2023-02-27T15:44:15.059Z,5.28
2023-02-27T15:46:42.905Z,2.63
2023-02-27T15:49:20.172Z,2.53
2023-02-27T15:51:49.048Z,2.47
2023-02-27T15:54:16.036Z,5.15
2023-02-27T15:56:43.264Z,7.03
2023-02-27T15:59:15.476Z,4.85
2023-02-27T16:01:42.632Z,7.63
2023-02-27T16:04:24.400Z,2.70
2023-02-27T16:07:20.716Z,6.10
2023-02-27T16:09:54.825Z,4.57
2023-02-27T16:12:37.159Z,1.25
2023-02-27T16:15:27.432Z,1.70
2023-02-27T16:18:03.500Z,2.03
2023-02-27T16:20:48.119Z,2.88
2023-02-27T16:23:16.672Z,1.75
2023-02-27T16:26:05.521Z,1.95
2023-02-27T16:29:18.917Z,1.98
2023-02-27T16:31:55.044Z,1.80
2023-02-27T16:34:44.662Z,2.65
2023-02-27T16:37:27.183Z,2.00
2023-02-27T16:39:54.693Z,2.50
2023-02-27T16:42:22.619Z,3.38
2023-02-27T16:44:49.726Z,3.75
2023-02-27T16:47:16.932Z,3.00
2023-02-27T16:49:45.677Z,5.22
2023-02-27T16:52:12.730Z,2.47
2023-02-27T16:54:39.679Z,4.53
2023-02-27T16:57:06.694Z,3.55
2023-02-27T16:59:40.393Z,2.50
2023-02-27T17:02:15.377Z,2.72
2023-02-27T17:04:48.014Z,6.28
2023-02-27T17:07:17.160Z,13.05
2023-02-27T17:09:48.180Z,12.63
2023-02-27T17:12:15.343Z,5.43
2023-02-27T17:14:42.562Z,3.80
2023-02-27T17:17:11.613Z,7.30
2023-02-27T17:19:39.409Z,8.70
2023-02-27T17:22:06.856Z,18.55
2023-02-27T17:24:34.731Z,5.53
2023-02-27T17:27:01.691Z,5.30
2023-02-27T17:29:28.890Z,2.83
2023-02-27T17:31:56.235Z,3.08
2023-02-27T17:34:23.579Z,3.58
2023-02-27T17:36:50.643Z,9.48
2023-02-27T17:39:17.882Z,6.65
2023-02-27T17:41:45.252Z,2.97
2023-02-27T17:44:12.868Z,2.67
2023-02-27T17:46:40.979Z,3.05
2023-02-27T17:49:09.676Z,3.35
2023-02-27T17:51:36.673Z,6.03
2023-02-27T17:54:06.067Z,6.47
2023-02-27T17:56:36.812Z,6.63
2023-02-27T17:59:04.403Z,5.82
2023-02-27T18:01:31.576Z,5.70
2023-02-27T18:03:58.574Z,4.78
2023-02-27T18:06:26.361Z,2.60
2023-02-27T18:08:53.508Z,3.50
2023-02-27T18:11:21.974Z,6.03
2023-02-27T18:13:50.569Z,5.38
2023-02-27T18:16:18.355Z,5.53
2023-02-27T18:18:45.873Z,5.03
2023-02-27T18:21:21.352Z,4.88
2023-02-27T18:23:49.516Z,5.25
2023-02-27T18:26:30.713Z,6.22
2023-02-27T18:29:04.172Z,4.60
2023-02-27T18:31:34.406Z,6.47
2023-02-27T18:34:03.790Z,6.88
2023-02-27T18:36:32.012Z,5.13
2023-02-27T18:38:59.723Z,3.95
2023-02-27T18:41:27.557Z,4.38
2023-02-27T18:43:54.642Z,3.60
2023-02-27T18:46:21.798Z,4.93
2023-02-27T18:48:48.858Z,3.15
2023-02-27T18:51:17.424Z,4.78
2023-02-27T18:53:49.611Z,3.88
2023-02-27T18:56:19.074Z,4.35
2023-02-27T18:58:46.362Z,3.17
2023-02-27T19:01:28.220Z,2.20
2023-02-27T19:04:00.552Z,1.95
2023-02-27T19:06:28.276Z,3.90
2023-02-27T19:08:55.752Z,1.75
2023-02-27T19:11:29.780Z,2.63
2023-02-27T19:20:16.528Z,3.53
2023-02-27T19:22:44.171Z,3.53
2023-02-27T19:25:11.420Z,3.55
2023-02-27T19:27:38.400Z,2.53
2023-02-27T19:30:05.908Z,3.33
2023-02-27T19:32:33.606Z,3.35
2023-02-27T19:35:00.581Z,2.17
2023-02-27T19:37:27.492Z,3.10
2023-02-27T19:39:54.463Z,3.03
2023-02-27T19:42:21.412Z,2.63
2023-02-27T19:44:48.458Z,2.58
2023-02-27T19:47:15.621Z,2.00
2023-02-27T19:49:42.596Z,2.45
2023-02-27T19:52:10.379Z,2.55
2023-02-27T19:54:37.688Z,2.15
2023-02-27T19:57:04.657Z,2.95
2023-02-27T19:59:31.669Z,2.88
2023-02-27T20:01:59.438Z,5.28
2023-02-27T20:04:26.536Z,7.50
2023-02-27T20:06:54.040Z,6.20
2023-02-27T20:09:21.067Z,3.42
2023-02-27T20:11:51.391Z,4.18
2023-02-27T20:14:18.589Z,3.55
2023-02-27T20:16:46.108Z,3.50
2023-02-27T20:19:15.865Z,2.92
2023-02-27T20:21:43.677Z,3.00
2023-02-27T20:24:11.354Z,4.10
2023-02-27T20:26:44.452Z,3.10
2023-02-27T20:29:20.226Z,2.92
2023-02-27T20:31:48.668Z,2.90
2023-02-27T20:34:21.961Z,3.88
2023-02-27T20:36:52.112Z,3.85
2023-02-27T20:39:19.906Z,4.57
2023-02-27T20:41:47.163Z,3.75
2023-02-27T20:44:14.395Z,3.30
2023-02-27T20:46:42.977Z,3.33
2023-02-27T20:49:12.564Z,3.55
2023-02-27T20:51:40.176Z,3.80
2023-02-27T20:54:09.856Z,5.28
2023-02-27T20:56:41.564Z,5.75
2023-02-27T20:59:13.021Z,4.70
2023-02-27T21:01:40.712Z,4.07
2023-02-27T21:04:08.440Z,5.03
2023-02-27T21:06:35.785Z,4.70
2023-02-27T21:09:06.389Z,4.32
2023-02-27T21:11:34.036Z,4.90
2023-02-27T21:14:08.051Z,5.57
2023-02-27T21:16:35.618Z,7.55
2023-02-27T21:19:02.686Z,7.80
2023-02-27T21:21:32.101Z,9.88
2023-02-27T21:24:00.085Z,17.85
2023-02-27T21:26:32.790Z,13.75
2023-02-27T21:29:05.093Z,14.57
2023-02-27T21:31:34.822Z,15.05
2023-02-27T21:34:05.733Z,14.32
2023-02-27T21:36:56.250Z,16.35
2023-02-27T21:39:30.285Z,20.17
2023-02-27T21:41:57.249Z,15.85
2023-02-27T21:44:25.255Z,20.83
2023-02-27T21:46:53.797Z,21.40
2023-02-27T21:49:25.747Z,19.75
2023-02-27T21:51:53.468Z,23.17
2023-02-27T21:54:20.761Z,26.77
2023-02-27T21:56:49.197Z,25.00
2023-02-27T21:59:17.582Z,23.58
2023-02-27T22:01:47.618Z,24.38
2023-02-27T22:04:19.492Z,23.80
2023-02-27T22:06:47.738Z,23.88
2023-02-27T22:09:14.718Z,27.20
2023-02-27T22:11:42.335Z,27.05
2023-02-27T22:14:11.288Z,28.90
2023-02-27T22:16:38.908Z,32.00
2023-02-27T22:19:11.353Z,32.70
2023-02-27T22:21:39.172Z,28.83
2023-02-27T22:24:07.229Z,27.15
2023-02-27T22:26:34.617Z,29.02
2023-02-27T22:29:02.286Z,29.25
2023-02-27T22:31:35.084Z,28.92
2023-02-27T22:34:12.629Z,29.83
2023-02-27T22:36:41.860Z,29.05
2023-02-27T22:39:08.942Z,27.98
2023-02-27T22:41:38.466Z,28.85
2023-02-27T22:44:06.442Z,28.05
2023-02-27T22:46:36.727Z,29.30
2023-02-27T22:49:19.427Z,31.33
2023-02-27T22:51:50.775Z,30.88
2023-02-27T22:54:20.211Z,28.38
2023-02-27T22:56:50.135Z,30.95
2023-02-27T22:59:17.172Z,29.58
2023-02-27T23:01:44.350Z,28.95
2023-02-27T23:04:11.920Z,28.55
2023-02-27T23:06:40.524Z,28.40
2023-02-27T23:09:10.805Z,27.13
2023-02-27T23:11:37.852Z,29.00
2023-02-27T23:14:04.837Z,30.45
2023-02-27T23:16:32.034Z,29.88
2023-02-27T23:19:00.278Z,31.63
2023-02-27T23:21:34.638Z,30.90
2023-02-27T23:24:10.592Z,32.08
2023-02-27T23:26:43.594Z,30.20
2023-02-27T23:29:11.341Z,30.65
2023-02-27T23:31:38.614Z,32.30
2023-02-27T23:34:06.481Z,31.90
2023-02-27T23:36:38.322Z,32.80
2023-02-27T23:39:06.350Z,32.10
2023-02-27T23:41:34.306Z,32.63
2023-02-27T23:44:01.849Z,40.88
2023-02-27T23:46:30.748Z,38.80
2023-02-27T23:49:01.986Z,38.58
2023-02-27T23:51:30.563Z,38.20
2023-02-27T23:53:58.347Z,37.05
2023-02-27T23:56:30.644Z,72.13
2023-02-27T23:59:00.584Z,48.38
